Kirishima Maru No.5 — JD2506 — position and weather

sailwx.info

Track history (hours):
 
Tides and Currents Weather Stations Pressure Air Temp Water Temp Dewpoint Dewpoint Depression Visibility Wind Speed Wind Dir Waves Ship Positions

Kirishima Maru No.5

Last reported at 2014-Sep-19 15:32 UTC. Time now 2014-Sep-19 15:54 UTC.
Position N 35°24' E 139°44'.

Length 105 m; draft 6.6 m.

Type: Tanker. MMSI: 431000338.

Date/timePositionNaut miles runAvg speedWind from/ knotsBaromVisibWave heightAir tempDewpointWater temp
2014-Sep-19 15:32N 35°24' E 139°44'0 0.1
2014-Sep-19 14:32N 35°24' E 139°44'0 0.0
2014-Sep-19 13:29N 35°24' E 139°44'0 0.0
2014-Sep-19 12:29N 35°24' E 139°44'0 0.0
2014-Sep-19 11:32N 35°24' E 139°44'0 0.0
2014-Sep-19 10:29N 35°24' E 139°44'0 0.0
2014-Sep-19 09:29N 35°24' E 139°44'0 0.0
2014-Sep-19 08:32N 35°24' E 139°44'0 0.0
2014-Sep-19 07:29N 35°24' E 139°44'0 0.0
2014-Sep-19 06:32N 35°24' E 139°44'0 0.0
2014-Sep-19 05:32N 35°24' E 139°44'0 0.0
2014-Sep-19 04:32N 35°24' E 139°44'0 0.0
2014-Sep-19 03:32N 35°24' E 139°44'0 0.0
2014-Sep-19 02:32N 35°24' E 139°44'1 1.1
2014-Sep-19 01:33N 35°23' E 139°44'1212.3
2014-Sep-19 00:33N 35°11' E 139°46'1413.6
2014-Sep-18 23:32N 34°57' E 139°44'1211.6
2014-Sep-18 22:30N 34°52' E 139°57'1111.4
2014-Sep-18 21:32N 34°57' E 140°09'2512.4
2014-Sep-18 19:33N 35°13' E 140°32'1614.3
2014-Sep-18 18:25N 35°25' E 140°45'1314.9
2014-Sep-18 17:32N 35°36' E 140°54'1614.3
2014-Sep-18 16:25N 35°51' E 140°59'56 1.4
2014-Sep-17 01:23N 36°47' E 141°04'3314.2
2014-Sep-16 23:06N 36°15' E 141°01'2314.3
2014-Sep-16 21:28N 35°51' E 140°59'1314.5
2014-Sep-16 20:33N 35°38' E 140°57'1514.5
2014-Sep-16 19:33N 35°27' E 140°46'1614.9
2014-Sep-16 18:29N 35°14' E 140°34'1916.0
2014-Sep-16 17:19N 35°01' E 140°18'1316.9
2014-Sep-16 16:33N 34°54' E 140°04'7815.2
2014-Sep-16 11:25N 34°30' E 138°34'18012.0
2014-Sep-15 20:29N 34°01' E 134°59'1515.7
2014-Sep-15 19:33N 34°15' E 134°58'1515.4
2014-Sep-15 18:33N 34°30' E 135°02'  
Track history (hours):
 
Tides and Currents Weather Stations Pressure Air Temp Water Temp Dewpoint Dewpoint Depression Visibility Wind Speed Wind Dir Waves Ship Positions

Kirishima Maru No.5

Last reported at 2014-Sep-19 15:32 UTC. Time now 2014-Sep-19 15:54 UTC.
Position N 35°24' E 139°44'.

Length 105 m; draft 6.6 m.

Type: Tanker. MMSI: 431000338.

Date/timePositionNaut miles runAvg speedWind from/ knotsBaromVisibWave heightAir tempDewpointWater temp
2014-Sep-19 15:32N 35°24' E 139°44'0 0.1
2014-Sep-19 14:32N 35°24' E 139°44'0 0.0
2014-Sep-19 13:29N 35°24' E 139°44'0 0.0
2014-Sep-19 12:29N 35°24' E 139°44'0 0.0
2014-Sep-19 11:32N 35°24' E 139°44'0 0.0
2014-Sep-19 10:29N 35°24' E 139°44'0 0.0
2014-Sep-19 09:29N 35°24' E 139°44'0 0.0
2014-Sep-19 08:32N 35°24' E 139°44'0 0.0
2014-Sep-19 07:29N 35°24' E 139°44'0 0.0
2014-Sep-19 06:32N 35°24' E 139°44'0 0.0
2014-Sep-19 05:32N 35°24' E 139°44'0 0.0
2014-Sep-19 04:32N 35°24' E 139°44'0 0.0
2014-Sep-19 03:32N 35°24' E 139°44'0 0.0
2014-Sep-19 02:32N 35°24' E 139°44'1 1.1
2014-Sep-19 01:33N 35°23' E 139°44'1212.3
2014-Sep-19 00:33N 35°11' E 139°46'1413.6
2014-Sep-18 23:32N 34°57' E 139°44'1211.6
2014-Sep-18 22:30N 34°52' E 139°57'1111.4
2014-Sep-18 21:32N 34°57' E 140°09'2512.4
2014-Sep-18 19:33N 35°13' E 140°32'1614.3
2014-Sep-18 18:25N 35°25' E 140°45'1314.9
2014-Sep-18 17:32N 35°36' E 140°54'1614.3
2014-Sep-18 16:25N 35°51' E 140°59'56 1.4
2014-Sep-17 01:23N 36°47' E 141°04'3314.2
2014-Sep-16 23:06N 36°15' E 141°01'2314.3
2014-Sep-16 21:28N 35°51' E 140°59'1314.5
2014-Sep-16 20:33N 35°38' E 140°57'1514.5
2014-Sep-16 19:33N 35°27' E 140°46'1614.9
2014-Sep-16 18:29N 35°14' E 140°34'1916.0
2014-Sep-16 17:19N 35°01' E 140°18'1316.9
2014-Sep-16 16:33N 34°54' E 140°04'7815.2
2014-Sep-16 11:25N 34°30' E 138°34'18012.0
2014-Sep-15 20:29N 34°01' E 134°59'1515.7
2014-Sep-15 19:33N 34°15' E 134°58'1515.4
2014-Sep-15 18:33N 34°30' E 135°02'  

Dump ship's entire track history